Baltimore, Maryland
Traffic Map
Current Weather Conditions
Baltimore, Maryland
Few Clouds
Few Clouds
74°
Feels Like: 74°
Wind Chill: 74° Ceiling: Unl
Heat Index: 74° Visibility: 10mi
Dew Point: 67° Wind: 0mph
Humidity: 79% Direction: ° ()
Pressure: 30.19in Gusts: 0mph
Raw Report DataKBWI 280154Z 00000KT 10SM FEW250 23/19 A3019 RMK AO2 SLP220 T02330194
Traffic Incident Summary
Active as of:
Severity:
Category:
InformationThere was an issue retrieving the traffic information for this location. Please try a different location or try again shortly.
Advertisements
Track Severe Weather on mobile